createdAt,value
2019-01-25T00:00:05.253Z,33.03
2019-01-25T00:02:33.657Z,27.10
2019-01-25T00:05:02.052Z,26.40
2019-01-25T00:10:02.482Z,28.33
2019-01-25T00:12:30.874Z,33.57
2019-01-25T00:14:59.270Z,29.70
2019-01-25T00:17:27.677Z,28.83
2019-01-25T00:20:15.493Z,32.97
2019-01-25T00:22:43.890Z,31.37
2019-01-25T00:25:12.525Z,33.27
2019-01-25T00:27:41.003Z,28.27
2019-01-25T00:30:14.730Z,29.00
2019-01-25T00:32:43.141Z,26.43
2019-01-25T00:35:11.609Z,29.30
2019-01-25T00:37:40.364Z,33.20
2019-01-25T00:40:12.166Z,33.53
2019-01-25T00:42:40.565Z,35.20
2019-01-25T00:45:10.522Z,32.73
2019-01-25T00:47:38.942Z,35.47
2019-01-25T00:50:19.098Z,37.07
2019-01-25T00:53:06.855Z,34.43
2019-01-25T00:55:35.322Z,37.63
2019-01-25T00:58:04.101Z,35.97
2019-01-25T01:00:32.498Z,31.57
2019-01-25T01:05:27.840Z,35.80
2019-01-25T01:07:56.269Z,37.00
2019-01-25T01:10:24.766Z,38.70
2019-01-25T01:12:53.219Z,41.57
2019-01-25T01:15:22.198Z,39.83
2019-01-25T01:17:50.733Z,38.67
2019-01-25T01:20:20.665Z,36.43
2019-01-25T01:22:50.016Z,38.33
2019-01-25T01:25:19.051Z,37.50
2019-01-25T01:27:47.593Z,40.27
2019-01-25T01:30:18.638Z,32.60
2019-01-25T01:32:47.102Z,39.10
2019-01-25T01:35:15.710Z,42.87
2019-01-25T01:37:44.548Z,40.83
2019-01-25T01:40:21.747Z,40.40
2019-01-25T01:42:48.326Z,35.73
2019-01-25T01:45:17.569Z,34.67
2019-01-25T01:47:45.961Z,44.43
2019-01-25T01:50:16.211Z,39.80
2019-01-25T01:52:44.854Z,42.40
2019-01-25T01:55:13.705Z,40.20
2019-01-25T01:57:42.169Z,43.30
2019-01-25T02:00:19.325Z,39.70
2019-01-25T02:02:47.797Z,42.70
2019-01-25T02:05:16.332Z,45.97
2019-01-25T02:07:44.747Z,45.70
2019-01-25T02:10:16.251Z,45.90
2019-01-25T02:12:44.721Z,42.27
2019-01-25T02:15:15.777Z,41.90
2019-01-25T02:17:44.327Z,40.00
2019-01-25T02:20:16.026Z,42.20
2019-01-25T02:22:44.438Z,46.10
2019-01-25T02:25:12.920Z,43.50
2019-01-25T02:27:41.314Z,42.07
2019-01-25T02:30:16.155Z,43.43
2019-01-25T02:32:44.555Z,38.03
2019-01-25T02:35:13.097Z,40.80
2019-01-25T02:37:41.497Z,41.10
2019-01-25T02:40:13.298Z,42.07
2019-01-25T02:42:41.703Z,39.93
2019-01-25T02:45:12.403Z,47.27
2019-01-25T02:47:40.937Z,34.90
2019-01-25T02:50:12.658Z,44.33
2019-01-25T02:52:41.129Z,43.23
2019-01-25T02:55:11.170Z,40.97
2019-01-25T02:57:39.582Z,43.17
2019-01-25T03:00:13.766Z,39.53
2019-01-25T03:02:42.617Z,46.23
2019-01-25T03:05:11.485Z,40.03
2019-01-25T03:07:39.966Z,46.37
2019-01-25T03:10:11.703Z,39.33
2019-01-25T03:12:40.122Z,41.10
2019-01-25T03:15:33.942Z,40.30
2019-01-25T03:18:02.366Z,34.87
2019-01-25T03:20:30.990Z,43.77
2019-01-25T03:22:59.412Z,37.23
2019-01-25T03:25:28.069Z,42.70
2019-01-25T03:27:56.529Z,41.30
2019-01-25T03:30:26.293Z,43.80
2019-01-25T03:32:54.899Z,49.20
2019-01-25T03:35:24.981Z,43.73
2019-01-25T03:37:53.729Z,45.10
2019-01-25T03:40:41.461Z,44.33
2019-01-25T03:43:10.198Z,48.50
2019-01-25T03:45:38.600Z,46.50
2019-01-25T03:48:07.069Z,44.37
2019-01-25T03:50:35.477Z,43.50
2019-01-25T03:53:04.117Z,44.37
2019-01-25T03:55:32.880Z,42.83
2019-01-25T03:58:01.282Z,44.10
2019-01-25T04:00:30.233Z,48.07
2019-01-25T04:02:58.736Z,45.23
2019-01-25T04:05:27.485Z,49.90
2019-01-25T04:07:55.881Z,42.53
2019-01-25T04:10:28.617Z,49.80
2019-01-25T04:12:57.155Z,49.07
2019-01-25T04:15:28.599Z,51.17
2019-01-25T04:17:57.039Z,49.47
2019-01-25T04:20:25.518Z,50.40
2019-01-25T04:22:54.045Z,45.60
2019-01-25T04:25:24.304Z,53.43
2019-01-25T04:27:53.166Z,47.87
2019-01-25T04:30:30.090Z,50.50
2019-01-25T04:32:58.486Z,48.87
2019-01-25T04:35:26.894Z,42.70
2019-01-25T04:37:55.425Z,51.90
2019-01-25T04:40:23.832Z,51.93
2019-01-25T04:42:52.522Z,51.57
2019-01-25T04:45:22.374Z,50.33
2019-01-25T04:47:51.045Z,53.17
2019-01-25T04:50:21.235Z,40.33
2019-01-25T04:52:50.010Z,47.30
2019-01-25T04:55:21.038Z,54.23
2019-01-25T04:57:49.436Z,43.73
2019-01-25T05:00:20.286Z,50.30
2019-01-25T05:02:56.355Z,46.50
2019-01-25T05:05:25.020Z,47.73
2019-01-25T05:07:59.309Z,55.73
2019-01-25T05:10:27.710Z,59.63
2019-01-25T05:12:56.105Z,53.47
2019-01-25T05:15:24.515Z,53.80
2019-01-25T05:17:54.659Z,55.00
2019-01-25T05:20:23.073Z,52.77
2019-01-25T05:22:56.214Z,55.40
2019-01-25T05:25:26.050Z,46.40
2019-01-25T05:27:54.737Z,50.43
2019-01-25T05:30:24.370Z,52.90
2019-01-25T05:32:54.437Z,51.93
2019-01-25T05:35:22.837Z,49.60
2019-01-25T05:37:51.235Z,43.67
2019-01-25T05:40:26.665Z,44.63
2019-01-25T05:42:55.061Z,46.23
2019-01-25T05:45:23.465Z,42.97
2019-01-25T05:47:51.861Z,45.23
2019-01-25T05:50:20.477Z,51.97
2019-01-25T05:52:48.873Z,53.13
2019-01-25T05:55:20.344Z,51.17
2019-01-25T05:57:48.822Z,50.73
2019-01-25T06:00:21.869Z,46.43
2019-01-25T06:02:50.269Z,49.83
2019-01-25T06:05:18.690Z,52.77
2019-01-25T06:07:47.061Z,50.17
2019-01-25T06:10:15.546Z,51.43
2019-01-25T06:12:43.936Z,42.83
2019-01-25T06:15:31.690Z,45.27
2019-01-25T06:18:02.299Z,49.10
2019-01-25T06:20:30.786Z,46.10
2019-01-25T06:22:59.190Z,41.40
2019-01-25T06:25:27.590Z,43.83
2019-01-25T06:27:55.990Z,42.33
2019-01-25T06:30:24.403Z,42.97
2019-01-25T06:32:52.804Z,46.93
2019-01-25T06:35:21.217Z,45.30
2019-01-25T06:37:49.618Z,42.93
2019-01-25T06:40:18.037Z,42.20
2019-01-25T06:42:46.438Z,48.37
2019-01-25T06:45:15.094Z,46.50
2019-01-25T06:47:43.701Z,45.33
2019-01-25T06:50:13.438Z,47.63
2019-01-25T06:52:41.907Z,47.93
2019-01-25T06:55:10.390Z,42.87
2019-01-25T06:57:46.126Z,44.53
2019-01-25T07:00:18.222Z,45.53
2019-01-25T07:02:46.618Z,47.10
2019-01-25T07:05:15.036Z,48.83
2019-01-25T07:07:44.726Z,48.50
2019-01-25T07:10:16.346Z,50.27
2019-01-25T07:12:44.810Z,40.00
2019-01-25T07:15:15.481Z,42.47
2019-01-25T07:17:44.210Z,42.37
2019-01-25T07:20:14.654Z,38.33
2019-01-25T07:22:43.050Z,45.53
2019-01-25T07:25:13.807Z,40.77
2019-01-25T07:27:42.203Z,42.20
2019-01-25T07:30:15.467Z,41.77
2019-01-25T07:32:43.942Z,38.63
2019-01-25T07:35:12.570Z,39.67
2019-01-25T07:37:40.985Z,41.53
2019-01-25T07:40:12.549Z,38.87
2019-01-25T07:42:41.112Z,42.67
2019-01-25T07:45:12.358Z,39.47
2019-01-25T07:47:40.762Z,39.67
2019-01-25T07:50:11.442Z,34.60
2019-01-25T07:52:39.942Z,36.40
2019-01-25T07:55:10.178Z,37.93
2019-01-25T07:57:38.814Z,35.67
2019-01-25T08:00:10.287Z,34.23
2019-01-25T08:02:38.694Z,33.47
2019-01-25T08:05:10.554Z,31.13
2019-01-25T08:07:39.043Z,33.77
2019-01-25T08:10:19.647Z,32.67
2019-01-25T08:12:48.187Z,37.13
2019-01-25T08:15:19.590Z,36.47
2019-01-25T08:17:48.007Z,31.40
2019-01-25T08:20:16.952Z,38.13
2019-01-25T08:22:45.490Z,36.53
2019-01-25T08:25:14.274Z,36.13
2019-01-25T08:27:42.670Z,36.97
2019-01-25T08:30:22.917Z,38.10
2019-01-25T08:32:51.642Z,33.27
2019-01-25T08:35:21.186Z,32.33
2019-01-25T08:37:49.670Z,33.10
2019-01-25T08:40:18.638Z,32.23
2019-01-25T08:42:47.160Z,33.83
2019-01-25T08:45:16.980Z,32.73
2019-01-25T08:47:45.445Z,31.57
2019-01-25T08:50:22.838Z,39.57
2019-01-25T08:52:51.265Z,38.00
2019-01-25T08:55:21.390Z,34.90
2019-01-25T08:57:49.987Z,32.97
2019-01-25T09:00:21.177Z,39.73
2019-01-25T09:02:49.590Z,37.03
2019-01-25T09:05:18.725Z,35.10
2019-01-25T09:07:47.141Z,36.70
2019-01-25T09:10:17.683Z,34.47
2019-01-25T09:12:46.160Z,39.57
2019-01-25T09:15:17.598Z,34.40
2019-01-25T09:17:46.076Z,34.50
2019-01-25T09:20:17.406Z,37.27
2019-01-25T09:22:45.877Z,31.67
2019-01-25T09:25:14.452Z,33.97
2019-01-25T09:27:43.315Z,29.97
2019-01-25T09:30:17.248Z,35.27
2019-01-25T09:32:45.678Z,33.80
2019-01-25T09:35:14.519Z,37.10
2019-01-25T09:37:42.925Z,31.27
2019-01-25T09:40:14.467Z,32.10
2019-01-25T09:42:42.869Z,35.03
2019-01-25T09:45:12.709Z,36.90
2019-01-25T09:47:41.118Z,32.17
2019-01-25T09:50:18.081Z,32.10
2019-01-25T09:52:46.634Z,30.83
2019-01-25T09:55:17.804Z,33.57
2019-01-25T09:57:46.261Z,32.67
2019-01-25T10:00:20.250Z,41.30
2019-01-25T10:02:48.637Z,32.60
2019-01-25T10:05:17.117Z,33.60
2019-01-25T10:07:45.597Z,33.63
2019-01-25T10:10:14.273Z,33.00
2019-01-25T10:12:43.503Z,33.43
2019-01-25T10:15:18.192Z,32.00
2019-01-25T10:17:46.648Z,40.63
2019-01-25T10:20:16.373Z,34.60
2019-01-25T10:22:44.791Z,36.10
2019-01-25T10:25:13.197Z,32.20
2019-01-25T10:27:41.579Z,31.57
2019-01-25T10:30:18.957Z,32.57
2019-01-25T10:32:47.361Z,30.50
2019-01-25T10:35:15.857Z,32.83
2019-01-25T10:37:44.347Z,31.20
2019-01-25T10:40:15.676Z,32.93
2019-01-25T10:42:52.553Z,34.50
2019-01-25T10:45:19.761Z,30.73
2019-01-25T10:47:48.162Z,33.07
2019-01-25T10:50:16.638Z,34.50
2019-01-25T10:52:45.123Z,31.40
2019-01-25T10:55:14.219Z,28.80
2019-01-25T10:57:42.700Z,29.53
2019-01-25T11:00:19.428Z,32.63
2019-01-25T11:02:47.938Z,27.77
2019-01-25T11:05:27.911Z,32.90
2019-01-25T11:07:56.315Z,36.40
2019-01-25T11:10:24.722Z,32.77
2019-01-25T11:13:00.491Z,34.33
2019-01-25T11:15:24.353Z,31.10
2019-01-25T11:17:52.751Z,29.50
2019-01-25T11:20:23.081Z,31.07
2019-01-25T11:22:51.739Z,31.07
2019-01-25T11:25:23.243Z,27.17
2019-01-25T11:27:52.992Z,30.47
2019-01-25T11:30:21.407Z,29.93
2019-01-25T11:32:49.804Z,32.60
2019-01-25T11:35:18.210Z,30.30
2019-01-25T11:37:46.615Z,29.73
2019-01-25T11:40:29.585Z,31.40
2019-01-25T11:42:58.280Z,28.93
2019-01-25T11:45:26.666Z,29.23
2019-01-25T11:47:55.078Z,28.47
2019-01-25T11:50:23.583Z,30.83
2019-01-25T11:52:52.046Z,28.13
2019-01-25T11:55:20.634Z,28.00
2019-01-25T11:57:49.070Z,31.27
2019-01-25T12:00:19.994Z,29.43
2019-01-25T12:02:48.784Z,31.47
2019-01-25T12:05:19.717Z,29.87
2019-01-25T12:07:49.289Z,30.80
2019-01-25T12:10:23.087Z,25.80
2019-01-25T12:12:51.499Z,27.90
2019-01-25T12:15:19.977Z,29.47
2019-01-25T12:17:48.373Z,27.97
2019-01-25T12:20:19.642Z,29.93
2019-01-25T12:22:48.039Z,29.10
2019-01-25T12:25:16.582Z,30.93
2019-01-25T12:27:45.000Z,28.53
2019-01-25T12:30:19.373Z,26.70
2019-01-25T12:32:47.776Z,28.10
2019-01-25T12:35:16.253Z,25.67
2019-01-25T12:37:44.645Z,24.63
2019-01-25T12:40:15.292Z,22.03
2019-01-25T12:42:43.705Z,26.10
2019-01-25T12:45:15.329Z,25.13
2019-01-25T12:47:43.724Z,25.70
2019-01-25T12:50:15.530Z,24.90
2019-01-25T12:52:43.945Z,23.50
2019-01-25T12:55:12.505Z,25.10
2019-01-25T12:57:40.972Z,25.90
2019-01-25T13:00:15.522Z,23.47
2019-01-25T13:02:44.054Z,24.30
2019-01-25T13:05:16.494Z,21.47
2019-01-25T13:07:45.055Z,22.13
2019-01-25T13:10:16.500Z,28.80
2019-01-25T13:12:44.974Z,21.13
2019-01-25T13:15:14.134Z,24.97
2019-01-25T13:17:42.654Z,23.53
2019-01-25T13:20:14.396Z,23.27
2019-01-25T13:22:42.805Z,21.60
2019-01-25T13:25:11.351Z,22.90
2019-01-25T13:27:40.266Z,24.57
2019-01-25T13:30:11.808Z,22.33
2019-01-25T13:32:40.338Z,24.43
2019-01-25T13:35:10.005Z,21.33
2019-01-25T13:37:38.681Z,23.60
2019-01-25T13:40:12.499Z,26.00
2019-01-25T13:42:41.251Z,21.93
2019-01-25T13:45:15.075Z,19.00
2019-01-25T13:47:44.134Z,24.50
2019-01-25T13:50:15.855Z,21.30
2019-01-25T13:52:44.241Z,19.43
2019-01-25T13:55:14.682Z,21.37
2019-01-25T13:57:43.614Z,20.73
2019-01-25T14:00:23.947Z,19.10
2019-01-25T14:02:52.334Z,23.40
2019-01-25T14:05:20.914Z,20.63
2019-01-25T14:07:49.310Z,18.73
2019-01-25T14:10:29.782Z,19.73
2019-01-25T14:12:58.273Z,21.03
2019-01-25T14:15:26.733Z,17.33
2019-01-25T14:17:55.150Z,20.13
2019-01-25T14:20:25.983Z,18.20
2019-01-25T14:22:54.385Z,18.40
2019-01-25T14:25:23.065Z,17.47
2019-01-25T14:27:51.854Z,19.20
2019-01-25T14:30:38.285Z,18.63
2019-01-25T14:33:07.228Z,18.43
2019-01-25T14:35:35.962Z,16.33
2019-01-25T14:38:04.937Z,17.90
2019-01-25T14:40:34.265Z,20.17
2019-01-25T14:43:02.670Z,19.17
2019-01-25T14:45:31.323Z,19.03
2019-01-25T14:47:59.742Z,18.27
2019-01-25T14:50:32.825Z,20.70
2019-01-25T14:53:01.314Z,15.83
2019-01-25T14:55:29.721Z,18.77
2019-01-25T14:58:17.773Z,19.67
2019-01-25T15:00:46.306Z,17.43
2019-01-25T15:03:14.709Z,17.37
2019-01-25T15:05:43.390Z,18.77
2019-01-25T15:08:11.782Z,16.40
2019-01-25T15:10:40.263Z,16.90
2019-01-25T15:13:08.743Z,14.53
2019-01-25T15:15:37.202Z,16.53
2019-01-25T15:18:05.676Z,13.90
2019-01-25T15:20:34.995Z,14.10
2019-01-25T15:23:03.446Z,15.73
2019-01-25T15:25:31.890Z,14.47
2019-01-25T15:28:00.283Z,12.17
2019-01-25T15:30:29.834Z,13.00
2019-01-25T15:32:58.405Z,13.47
2019-01-25T15:35:26.983Z,12.17
2019-01-25T15:37:55.394Z,9.67
2019-01-25T15:40:24.623Z,13.27
2019-01-25T15:42:53.017Z,10.87
2019-01-25T15:45:22.584Z,12.77
2019-01-25T15:47:51.167Z,13.97
2019-01-25T15:50:28.006Z,11.63
2019-01-25T15:52:56.563Z,14.43
2019-01-25T15:55:25.532Z,13.33
2019-01-25T15:57:54.001Z,16.10
2019-01-25T16:00:24.242Z,14.03
2019-01-25T16:02:52.825Z,12.27
2019-01-25T16:05:22.250Z,11.40
2019-01-25T16:07:50.907Z,14.43
2019-01-25T16:10:22.723Z,16.75
2019-01-25T16:12:52.012Z,14.00
2019-01-25T16:15:25.258Z,14.27
2019-01-25T16:17:54.390Z,13.43
2019-01-25T16:20:22.870Z,12.73
2019-01-25T16:22:53.515Z,15.10
2019-01-25T16:25:27.169Z,13.93
2019-01-25T16:27:55.581Z,12.13
2019-01-25T16:30:43.330Z,13.30
2019-01-25T16:33:11.753Z,15.93
2019-01-25T16:35:40.394Z,14.43
2019-01-25T16:38:08.853Z,15.20
2019-01-25T16:40:37.285Z,29.87
2019-01-25T16:43:05.818Z,13.53
2019-01-25T16:45:41.567Z,22.93
2019-01-25T16:48:10.566Z,20.03
2019-01-25T16:50:39.909Z,9.87
2019-01-25T16:53:09.729Z,10.87
2019-01-25T16:55:38.115Z,10.93
2019-01-25T16:58:06.978Z,12.17
2019-01-25T17:00:41.137Z,11.73
2019-01-25T17:03:09.579Z,10.60
2019-01-25T17:05:38.097Z,13.40
2019-01-25T17:08:07.389Z,10.03
2019-01-25T17:10:35.890Z,10.63
2019-01-25T17:13:05.459Z,12.83
2019-01-25T17:15:33.900Z,10.97
2019-01-25T17:18:02.318Z,9.03
2019-01-25T17:20:31.365Z,10.40
2019-01-25T17:22:59.810Z,10.47
2019-01-25T17:25:28.317Z,11.73
2019-01-25T17:27:56.701Z,10.70
2019-01-25T17:30:33.846Z,10.13
2019-01-25T17:33:02.630Z,9.20
2019-01-25T17:35:31.922Z,10.73
2019-01-25T17:38:00.673Z,14.10
2019-01-25T17:40:34.879Z,15.80
2019-01-25T17:43:03.270Z,15.73
2019-01-25T17:45:31.692Z,17.43
2019-01-25T17:48:00.085Z,15.50
2019-01-25T17:50:28.483Z,14.53
2019-01-25T17:52:56.897Z,15.77
2019-01-25T17:55:25.314Z,13.00
2019-01-25T17:57:53.795Z,17.73
2019-01-25T18:00:26.434Z,14.63
2019-01-25T18:02:55.081Z,17.13
2019-01-25T18:05:23.541Z,21.63
2019-01-25T18:07:51.942Z,15.00
2019-01-25T18:10:22.389Z,17.63
2019-01-25T18:12:50.871Z,17.57
2019-01-25T18:15:19.403Z,16.40
2019-01-25T18:17:47.801Z,17.27
2019-01-25T18:20:18.817Z,19.97
2019-01-25T18:22:47.284Z,19.60
2019-01-25T18:25:21.583Z,18.90
2019-01-25T18:27:56.540Z,18.83
2019-01-25T18:30:34.105Z,16.83
2019-01-25T18:33:02.520Z,21.20
2019-01-25T18:35:31.002Z,20.57
2019-01-25T18:37:59.412Z,22.03
2019-01-25T18:40:27.819Z,22.17
2019-01-25T18:42:56.214Z,19.43
2019-01-25T18:45:24.608Z,21.77
2019-01-25T18:47:53.013Z,21.20
2019-01-25T18:50:21.422Z,18.77
2019-01-25T18:52:49.815Z,17.40
2019-01-25T18:55:21.721Z,22.70
2019-01-25T18:57:50.106Z,18.07
2019-01-25T19:00:20.445Z,14.73
2019-01-25T19:02:48.849Z,18.23
2019-01-25T19:05:17.593Z,15.80
2019-01-25T19:07:46.003Z,16.37
2019-01-25T19:10:17.409Z,14.67
2019-01-25T19:12:46.055Z,13.73
2019-01-25T19:15:17.625Z,15.27
2019-01-25T19:17:46.018Z,14.67
2019-01-25T19:20:15.675Z,11.97
2019-01-25T19:22:44.092Z,11.67
2019-01-25T19:25:13.022Z,14.27
2019-01-25T19:27:41.435Z,14.50
2019-01-25T19:30:25.014Z,12.13
2019-01-25T19:32:53.510Z,18.20
2019-01-25T19:35:22.251Z,23.97
2019-01-25T19:37:50.754Z,29.37
2019-01-25T19:40:22.011Z,23.90
2019-01-25T19:42:50.548Z,12.83
2019-01-25T19:45:19.342Z,23.57
2019-01-25T19:47:47.738Z,18.47
2019-01-25T19:50:18.673Z,15.47
2019-01-25T19:52:47.157Z,13.57
2019-01-25T19:55:21.016Z,11.33
2019-01-25T19:57:49.858Z,12.40
2019-01-25T20:00:24.650Z,14.77
2019-01-25T20:02:53.187Z,13.20
2019-01-25T20:05:24.147Z,11.83
2019-01-25T20:07:52.607Z,10.17
2019-01-25T20:10:21.673Z,12.57
2019-01-25T20:12:50.618Z,12.13
2019-01-25T20:15:21.746Z,12.57
2019-01-25T20:17:50.370Z,11.73
2019-01-25T20:20:24.842Z,11.20
2019-01-25T20:22:53.315Z,14.00
2019-01-25T20:25:21.730Z,12.73
2019-01-25T20:27:50.361Z,17.83
2019-01-25T20:30:26.821Z,12.87
2019-01-25T20:32:55.331Z,14.00
2019-01-25T20:35:32.718Z,10.83
2019-01-25T20:38:01.210Z,11.43
2019-01-25T20:40:29.605Z,11.33
2019-01-25T20:42:58.146Z,11.53
2019-01-25T20:45:32.230Z,11.93
2019-01-25T20:48:00.639Z,13.80
2019-01-25T20:50:31.177Z,13.40
2019-01-25T20:53:00.138Z,10.63
2019-01-25T20:55:28.621Z,10.83
2019-01-25T20:57:58.051Z,12.47
2019-01-25T21:00:29.207Z,10.67
2019-01-25T21:02:57.823Z,10.87
2019-01-25T21:05:26.233Z,12.50
2019-01-25T21:07:54.630Z,12.57
2019-01-25T21:10:24.871Z,13.20
2019-01-25T21:12:53.820Z,11.27
2019-01-25T21:15:24.839Z,10.57
2019-01-25T21:17:53.623Z,10.60
2019-01-25T21:20:25.206Z,10.40
2019-01-25T21:22:53.618Z,11.40
2019-01-25T21:25:22.254Z,10.03
2019-01-25T21:27:50.710Z,9.60
2019-01-25T21:30:22.166Z,10.73
2019-01-25T21:32:50.563Z,10.13
2019-01-25T21:35:19.043Z,11.93
2019-01-25T21:37:47.430Z,8.73
2019-01-25T21:40:18.463Z,9.37
2019-01-25T21:42:46.891Z,11.03
2019-01-25T21:45:18.399Z,11.40
2019-01-25T21:47:46.805Z,10.57
2019-01-25T21:50:20.491Z,10.13
2019-01-25T21:52:48.945Z,13.60
2019-01-25T21:55:17.491Z,9.93
2019-01-25T21:57:45.961Z,12.87
2019-01-25T22:00:22.952Z,12.93
2019-01-25T22:02:51.414Z,9.77
2019-01-25T22:05:20.454Z,12.70
2019-01-25T22:07:48.854Z,10.23
2019-01-25T22:10:28.493Z,8.60
2019-01-25T22:12:56.971Z,11.77
2019-01-25T22:15:25.803Z,14.07
2019-01-25T22:17:54.370Z,8.43
2019-01-25T22:20:28.042Z,10.73
2019-01-25T22:22:56.574Z,11.40
2019-01-25T22:25:25.308Z,10.50
2019-01-25T22:27:54.910Z,10.30
2019-01-25T22:30:28.346Z,9.77
2019-01-25T22:32:56.829Z,9.40
2019-01-25T22:35:25.227Z,12.90
2019-01-25T22:37:54.075Z,9.47
2019-01-25T22:40:27.357Z,11.53
2019-01-25T22:42:55.915Z,11.03
2019-01-25T22:45:26.569Z,8.67
2019-01-25T22:47:55.566Z,8.80
2019-01-25T22:50:28.733Z,9.27
2019-01-25T22:52:57.385Z,9.77
2019-01-25T22:55:26.388Z,10.33
2019-01-25T22:57:54.930Z,10.80
2019-01-25T23:00:49.029Z,9.00
2019-01-25T23:03:20.742Z,8.13
2019-01-25T23:06:20.882Z,9.87
2019-01-25T23:08:49.278Z,8.67
2019-01-25T23:11:17.673Z,10.10
2019-01-25T23:13:46.079Z,9.13
2019-01-25T23:16:14.492Z,9.57
2019-01-25T23:18:42.878Z,7.53
2019-01-25T23:21:11.272Z,8.33
2019-01-25T23:23:39.670Z,8.43
2019-01-25T23:26:08.185Z,10.07
2019-01-25T23:28:36.592Z,9.83
2019-01-25T23:31:04.963Z,9.07
2019-01-25T23:33:33.364Z,8.13
2019-01-25T23:36:01.808Z,7.07
2019-01-25T23:38:30.230Z,8.07
2019-01-25T23:40:58.621Z,7.50
2019-01-25T23:43:27.034Z,10.90
2019-01-25T23:45:55.424Z,9.50
2019-01-25T23:48:23.874Z,9.63
2019-01-25T23:50:52.285Z,7.97
2019-01-25T23:53:20.678Z,8.07
2019-01-25T23:55:49.101Z,9.30
2019-01-25T23:58:17.545Z,11.43
